Terminal Aerodrome Forecast
Issued by NWS

Home | Current Version | Previous Version | Text Only | Print | Product List | Glossary On
Versions: 1 2 3 4 5 6 7 8 9 10 11 12 13 14
000
FTUS41 KAKQ 210900 AAA
TAFPHF
TAF AMD
KPHF 210927Z 2109/2206 01007KT P6SM OVC007
     FM211000 36007KT 5SM BR OVC007
      TEMPO 2110/2112 2SM BR
     FM211400 34008KT P6SM SCT040
     FM212000 25008KT P6SM SCT060=

USA.gov is the U.S. government's official web portal to all federal, state and local government web resources and services.